createdAt,value
2023-01-23T00:01:22.557Z,15.73
2023-01-23T00:03:49.293Z,15.72
2023-01-23T00:06:17.035Z,15.70
2023-01-23T00:08:45.804Z,15.65
2023-01-23T00:11:18.889Z,15.43
2023-01-23T00:13:46.432Z,15.32
2023-01-23T00:16:16.420Z,15.10
2023-01-23T00:18:43.556Z,15.00
2023-01-23T00:21:13.751Z,15.36
2023-01-23T00:23:46.293Z,15.76
2023-01-23T00:26:15.933Z,15.41
2023-01-23T00:28:45.951Z,15.61
2023-01-23T00:31:25.307Z,15.54
2023-01-23T00:33:58.027Z,15.46
2023-01-23T00:36:27.757Z,15.51
2023-01-23T00:38:55.627Z,15.62
2023-01-23T00:41:22.518Z,15.43
2023-01-23T00:43:51.917Z,15.35
2023-01-23T00:46:22.700Z,15.56
2023-01-23T00:48:50.036Z,15.25
2023-01-23T00:51:18.784Z,15.34
2023-01-23T00:53:45.939Z,15.45
2023-01-23T00:56:13.120Z,15.64
2023-01-23T00:58:43.488Z,15.50
2023-01-23T01:01:14.013Z,15.67
2023-01-23T01:03:41.001Z,15.60
2023-01-23T01:06:08.747Z,15.69
2023-01-23T01:08:35.817Z,15.62
2023-01-23T01:11:02.752Z,14.94
2023-01-23T01:13:31.307Z,15.27
2023-01-23T01:16:01.842Z,15.15
2023-01-23T01:18:29.968Z,15.30
2023-01-23T01:20:57.463Z,15.00
2023-01-23T01:23:24.269Z,15.27
2023-01-23T01:25:51.237Z,14.99
2023-01-23T01:28:18.604Z,15.11
2023-01-23T01:30:47.464Z,15.20
2023-01-23T01:33:14.728Z,15.31
2023-01-23T01:35:41.654Z,15.37
2023-01-23T01:38:09.359Z,15.45
2023-01-23T01:40:36.985Z,15.04
2023-01-23T01:43:07.929Z,15.25
2023-01-23T01:46:14.420Z,15.49
2023-01-23T01:48:44.165Z,14.96
2023-01-23T01:51:15.658Z,14.84
2023-01-23T01:53:46.560Z,14.85
2023-01-23T01:56:14.882Z,14.98
2023-01-23T01:58:44.370Z,14.68
2023-01-23T02:01:11.833Z,15.04
2023-01-23T02:03:39.400Z,14.80
2023-01-23T02:06:07.271Z,14.94
2023-01-23T02:09:11.455Z,15.25
2023-01-23T02:11:38.617Z,15.11
2023-01-23T02:14:05.389Z,14.99
2023-01-23T02:16:40.316Z,15.30
2023-01-23T02:19:41.224Z,15.32
2023-01-23T02:22:43.435Z,14.30
2023-01-23T02:25:37.440Z,14.50
2023-01-23T02:28:05.018Z,14.32
2023-01-23T02:30:37.720Z,14.18
2023-01-23T02:33:30.941Z,14.81
2023-01-23T02:36:02.418Z,14.48
2023-01-23T02:38:44.492Z,14.11
2023-01-23T02:41:14.503Z,14.53
2023-01-23T02:43:42.878Z,14.45
2023-01-23T02:46:12.579Z,14.00
2023-01-23T02:48:44.369Z,14.50
2023-01-23T02:51:11.599Z,14.38
2023-01-23T02:53:39.489Z,14.30
2023-01-23T02:56:06.676Z,14.74
2023-01-23T02:58:52.804Z,14.82
2023-01-23T03:01:19.624Z,14.13
2023-01-23T03:03:46.577Z,14.67
2023-01-23T03:06:13.367Z,14.48
2023-01-23T03:08:47.569Z,14.89
2023-01-23T03:11:16.845Z,14.75
2023-01-23T03:13:45.422Z,14.63
2023-01-23T03:16:13.127Z,14.59
2023-01-23T03:18:52.705Z,14.73
2023-01-23T03:21:22.029Z,14.59
2023-01-23T03:23:50.012Z,14.64
2023-01-23T03:26:19.279Z,14.38
2023-01-23T03:29:06.391Z,14.88
2023-01-23T03:31:33.266Z,14.96
2023-01-23T03:34:00.495Z,14.66
2023-01-23T03:36:29.190Z,14.99
2023-01-23T03:39:14.260Z,14.70
2023-01-23T03:41:42.073Z,14.69
2023-01-23T03:44:09.353Z,14.88
2023-01-23T03:46:36.356Z,14.31
2023-01-23T03:49:03.400Z,14.50
2023-01-23T03:51:30.317Z,14.38
2023-01-23T03:53:57.158Z,14.06
2023-01-23T03:56:25.245Z,14.14
2023-01-23T03:58:52.697Z,14.21
2023-01-23T04:01:21.539Z,14.21
2023-01-23T04:03:48.353Z,14.51
2023-01-23T04:06:16.006Z,14.29
2023-01-23T04:08:44.606Z,14.79
2023-01-23T04:11:12.634Z,14.12
2023-01-23T04:13:39.696Z,14.19
2023-01-23T04:16:07.297Z,13.82
2023-01-23T04:18:35.208Z,14.07
2023-01-23T04:21:02.428Z,14.17
2023-01-23T04:23:32.170Z,14.12
2023-01-23T04:25:59.187Z,14.34
2023-01-23T04:28:27.542Z,13.79
2023-01-23T04:30:55.423Z,14.29
2023-01-23T04:33:28.760Z,13.79
2023-01-23T04:35:56.909Z,14.01
2023-01-23T04:38:28.803Z,14.15
2023-01-23T04:40:56.937Z,14.31
2023-01-23T04:43:23.972Z,14.40
2023-01-23T04:45:54.047Z,13.57
2023-01-23T04:48:40.001Z,14.14
2023-01-23T04:51:08.601Z,13.35
2023-01-23T04:53:36.070Z,13.43
2023-01-23T04:56:04.047Z,12.68
2023-01-23T04:58:31.322Z,13.41
2023-01-23T05:01:08.623Z,13.74
2023-01-23T05:03:37.439Z,13.89
2023-01-23T05:06:04.423Z,14.07
2023-01-23T05:08:31.645Z,13.68
2023-01-23T05:11:17.735Z,13.67
2023-01-23T05:13:44.742Z,13.52
2023-01-23T05:16:12.832Z,13.28
2023-01-23T05:19:11.668Z,13.62
2023-01-23T05:21:38.921Z,13.82
2023-01-23T05:24:10.666Z,13.88
2023-01-23T05:26:37.899Z,14.33
2023-01-23T05:29:04.803Z,14.17
2023-01-23T05:31:35.112Z,13.89
2023-01-23T05:34:20.334Z,14.24
2023-01-23T05:36:47.669Z,13.82
2023-01-23T05:39:15.776Z,14.27
2023-01-23T05:41:43.490Z,14.08
2023-01-23T05:44:30.574Z,14.20
2023-01-23T05:47:08.449Z,14.59
2023-01-23T05:49:35.404Z,14.23
2023-01-23T05:52:02.308Z,14.23
2023-01-23T05:54:29.514Z,14.34
2023-01-23T05:56:56.420Z,14.35
2023-01-23T05:59:35.241Z,14.55
2023-01-23T06:02:14.105Z,14.33
2023-01-23T06:04:59.397Z,13.98
2023-01-23T06:07:43.096Z,13.65
2023-01-23T06:10:10.442Z,14.08
2023-01-23T06:12:37.399Z,14.50
2023-01-23T06:15:05.259Z,14.54
2023-01-23T06:17:32.050Z,14.28
2023-01-23T06:19:58.983Z,14.21
2023-01-23T06:22:25.890Z,14.63
2023-01-23T06:25:01.681Z,14.54
2023-01-23T06:27:28.589Z,14.53
2023-01-23T06:29:55.428Z,14.17
2023-01-23T06:32:23.638Z,13.21
2023-01-23T06:34:51.496Z,13.36
2023-01-23T06:37:18.428Z,13.42
2023-01-23T06:39:45.887Z,13.28
2023-01-23T06:42:14.739Z,13.92
2023-01-23T06:44:45.730Z,13.81
2023-01-23T06:47:13.953Z,13.72
2023-01-23T06:49:42.720Z,13.50
2023-01-23T06:52:09.758Z,13.81
2023-01-23T06:54:37.449Z,14.02
2023-01-23T06:57:05.927Z,14.06
2023-01-23T06:59:33.852Z,13.58
2023-01-23T07:02:03.303Z,13.85
2023-01-23T07:04:39.434Z,13.98
2023-01-23T07:07:06.259Z,13.76
2023-01-23T07:09:33.542Z,13.16
2023-01-23T07:12:14.577Z,13.23
2023-01-23T07:14:41.610Z,13.05
2023-01-23T07:17:10.882Z,13.02
2023-01-23T07:19:37.619Z,13.28
2023-01-23T07:22:08.195Z,13.25
2023-01-23T07:24:34.986Z,13.64
2023-01-23T07:27:01.982Z,13.25
2023-01-23T07:29:28.741Z,13.12
2023-01-23T07:31:55.764Z,13.31
2023-01-23T07:34:22.514Z,13.27
2023-01-23T07:36:49.536Z,13.08
2023-01-23T07:39:17.439Z,13.11
2023-01-23T07:41:46.253Z,13.07
2023-01-23T07:44:20.958Z,13.41
2023-01-23T07:46:48.517Z,13.27
2023-01-23T07:49:15.650Z,13.17
2023-01-23T07:51:42.499Z,13.15
2023-01-23T07:54:09.556Z,13.54
2023-01-23T07:56:36.487Z,13.57
2023-01-23T07:59:03.324Z,13.63
2023-01-23T08:01:30.356Z,13.25
2023-01-23T08:03:58.395Z,13.12
2023-01-23T08:06:25.374Z,12.92
2023-01-23T08:08:52.200Z,12.85
2023-01-23T08:11:19.607Z,13.02
2023-01-23T08:13:50.058Z,13.35
2023-01-23T08:16:17.042Z,13.28
2023-01-23T08:18:44.006Z,13.46
2023-01-23T08:21:11.022Z,13.59
2023-01-23T08:23:37.921Z,13.12
2023-01-23T08:26:06.426Z,13.59
2023-01-23T08:28:33.417Z,13.52
2023-01-23T08:31:02.240Z,12.57
2023-01-23T08:33:30.134Z,13.12
2023-01-23T08:35:58.566Z,12.92
2023-01-23T08:38:26.528Z,12.70
2023-01-23T08:40:55.386Z,12.76
2023-01-23T08:43:22.538Z,12.32
2023-01-23T08:45:52.298Z,12.98
2023-01-23T08:48:20.600Z,13.60
2023-01-23T08:50:47.428Z,13.31
2023-01-23T08:53:14.952Z,13.34
2023-01-23T08:55:42.424Z,13.11
2023-01-23T08:58:13.061Z,13.78
2023-01-23T09:00:40.743Z,13.17
2023-01-23T09:03:09.901Z,13.57
2023-01-23T09:05:38.042Z,13.58
2023-01-23T09:08:05.133Z,13.35
2023-01-23T09:10:32.123Z,13.15
2023-01-23T09:12:58.857Z,13.16
2023-01-23T09:15:25.731Z,13.11
2023-01-23T09:17:52.399Z,13.54
2023-01-23T09:20:19.905Z,13.51
2023-01-23T09:22:46.768Z,13.61
2023-01-23T09:25:14.360Z,13.45
2023-01-23T09:27:41.305Z,13.76
2023-01-23T09:30:08.823Z,13.61
2023-01-23T09:32:35.717Z,13.55
2023-01-23T09:35:02.557Z,13.89
2023-01-23T09:37:51.081Z,13.39
2023-01-23T09:40:22.730Z,13.93
2023-01-23T09:42:53.775Z,13.70
2023-01-23T09:45:25.815Z,13.68
2023-01-23T09:48:15.967Z,13.02
2023-01-23T09:50:54.487Z,13.50
2023-01-23T09:53:25.313Z,14.05
2023-01-23T09:56:22.122Z,13.89
2023-01-23T09:59:19.741Z,13.93
2023-01-23T10:01:46.653Z,13.75
2023-01-23T10:04:18.336Z,13.16
2023-01-23T10:07:06.618Z,13.35
2023-01-23T10:09:52.503Z,13.93
2023-01-23T10:12:44.957Z,14.17
2023-01-23T10:15:20.804Z,13.62
2023-01-23T10:18:00.106Z,12.95
2023-01-23T10:20:55.293Z,12.88
2023-01-23T10:23:34.165Z,13.06
2023-01-23T10:26:03.993Z,13.29
2023-01-23T10:28:42.032Z,12.88
2023-01-23T10:31:19.667Z,13.02
2023-01-23T10:33:55.770Z,12.76
2023-01-23T10:36:47.495Z,13.13
2023-01-23T10:39:26.443Z,13.30
2023-01-23T10:42:01.471Z,12.89
2023-01-23T10:44:29.128Z,13.09
2023-01-23T10:47:02.269Z,13.22
2023-01-23T10:49:32.036Z,12.64
2023-01-23T10:51:58.868Z,13.44
2023-01-23T10:54:32.560Z,13.28
2023-01-23T10:57:02.445Z,13.31
2023-01-23T10:59:50.883Z,12.83
2023-01-23T11:02:21.925Z,13.21
2023-01-23T11:04:51.935Z,12.55
2023-01-23T11:07:20.126Z,12.90
2023-01-23T11:09:48.468Z,13.35
2023-01-23T11:12:35.643Z,12.64
2023-01-23T11:15:22.117Z,12.66
2023-01-23T11:17:50.991Z,13.12
2023-01-23T11:20:39.940Z,12.48
2023-01-23T11:23:10.957Z,12.81
2023-01-23T11:25:40.432Z,12.75
2023-01-23T11:28:34.024Z,13.12
2023-01-23T11:31:15.037Z,12.97
2023-01-23T11:33:59.392Z,13.44
2023-01-23T11:36:36.030Z,13.70
2023-01-23T11:39:27.165Z,13.36
2023-01-23T11:41:54.100Z,13.29
2023-01-23T11:44:23.325Z,13.26
2023-01-23T11:47:01.681Z,13.25
2023-01-23T11:49:34.380Z,13.34
2023-01-23T11:52:10.176Z,12.59
2023-01-23T11:55:01.576Z,12.68
2023-01-23T11:58:04.873Z,12.98
2023-01-23T12:01:03.627Z,12.98
2023-01-23T12:03:39.488Z,12.76
2023-01-23T12:09:17.188Z,13.30
2023-01-23T12:12:10.934Z,12.99
2023-01-23T12:14:46.668Z,13.34
2023-01-23T12:17:25.778Z,13.17
2023-01-23T12:20:02.159Z,12.79
2023-01-23T12:22:44.325Z,12.75
2023-01-23T12:25:29.722Z,13.01
2023-01-23T12:28:19.671Z,13.17
2023-01-23T12:31:10.898Z,13.17
2023-01-23T12:33:44.830Z,13.18
2023-01-23T12:36:54.431Z,12.89
2023-01-23T12:39:40.167Z,12.55
2023-01-23T12:42:21.793Z,12.62
2023-01-23T12:44:59.919Z,12.70
2023-01-23T12:47:34.416Z,12.94
2023-01-23T12:50:14.906Z,12.90
2023-01-23T12:52:55.256Z,12.94
2023-01-23T12:55:39.246Z,12.49
2023-01-23T12:58:09.466Z,12.98
2023-01-23T13:01:01.925Z,12.96
2023-01-23T13:03:46.016Z,13.05
2023-01-23T13:06:50.086Z,13.17
2023-01-23T13:09:28.963Z,13.05
2023-01-23T13:12:20.425Z,12.57
2023-01-23T13:15:10.608Z,12.53
2023-01-23T13:17:44.339Z,13.07
2023-01-23T13:20:43.280Z,13.14
2023-01-23T13:23:33.252Z,12.81
2023-01-23T13:26:15.619Z,13.19
2023-01-23T13:28:55.415Z,13.27
2023-01-23T13:31:37.014Z,12.86
2023-01-23T13:34:16.324Z,13.19
2023-01-23T13:36:45.175Z,12.69
2023-01-23T13:39:15.029Z,12.95
2023-01-23T13:41:42.611Z,12.97
2023-01-23T13:44:40.346Z,12.61
2023-01-23T14:22:33.508Z,12.54
2023-01-23T14:25:00.263Z,12.36
2023-01-23T14:27:44.479Z,13.00
2023-01-23T14:30:21.517Z,13.16
2023-01-23T14:32:48.346Z,13.39
2023-01-23T14:35:30.757Z,13.10
2023-01-23T14:38:05.088Z,13.28
2023-01-23T14:40:46.663Z,12.96
2023-01-23T14:43:27.831Z,13.34
2023-01-23T14:46:17.990Z,12.92
2023-01-23T14:48:50.260Z,12.84
2023-01-23T14:51:22.040Z,12.96
2023-01-23T14:53:58.642Z,13.12
2023-01-23T14:56:32.321Z,13.13
2023-01-23T14:59:03.085Z,13.20
2023-01-23T15:01:30.354Z,13.10
2023-01-23T15:04:00.317Z,13.07
2023-01-23T15:06:28.666Z,13.47
2023-01-23T15:09:06.107Z,13.44
2023-01-23T15:11:33.704Z,13.12
2023-01-23T15:14:02.307Z,13.16
2023-01-23T15:16:36.211Z,13.17
2023-01-23T15:19:23.776Z,12.51
2023-01-23T15:21:50.711Z,13.01
2023-01-23T15:24:25.588Z,12.55
2023-01-23T15:27:06.511Z,12.84
2023-01-23T15:29:34.104Z,13.15
2023-01-23T15:32:01.735Z,12.96
2023-01-23T15:34:33.842Z,13.04
2023-01-23T15:37:15.650Z,12.76
2023-01-23T15:39:51.205Z,12.74
2023-01-23T15:42:18.031Z,13.00
2023-01-23T15:44:45.099Z,13.04
2023-01-23T15:47:12.123Z,12.95
2023-01-23T15:49:40.109Z,13.02
2023-01-23T15:52:45.606Z,13.23
2023-01-23T15:55:13.295Z,12.94
2023-01-23T15:57:41.920Z,12.66
2023-01-23T16:00:27.809Z,12.82
2023-01-23T16:02:57.262Z,13.04
2023-01-23T16:05:31.161Z,13.10
2023-01-23T16:08:01.246Z,12.97
2023-01-23T16:10:31.845Z,13.14
2023-01-23T16:12:59.047Z,13.15
2023-01-23T16:15:32.882Z,13.09
2023-01-23T16:18:02.830Z,12.62
2023-01-23T16:20:34.564Z,13.28
2023-01-23T16:23:14.207Z,13.05
2023-01-23T16:25:44.858Z,12.85
2023-01-23T16:28:17.750Z,13.36
2023-01-23T16:30:45.025Z,13.54
2023-01-23T16:33:12.206Z,13.34
2023-01-23T16:35:39.607Z,13.41
2023-01-23T16:38:06.793Z,13.37
2023-01-23T16:40:34.573Z,13.65
2023-01-23T16:43:03.109Z,13.08
2023-01-23T16:45:31.943Z,13.40
2023-01-23T16:48:00.239Z,13.05
2023-01-23T16:50:34.395Z,12.92
2023-01-23T16:53:14.738Z,13.42
2023-01-23T16:55:44.931Z,12.75
2023-01-23T16:58:21.333Z,13.04
2023-01-23T17:00:51.411Z,12.68
2023-01-23T17:03:29.029Z,13.15
2023-01-23T17:05:55.962Z,12.85
2023-01-23T17:08:24.985Z,13.17
2023-01-23T17:10:55.248Z,13.38
2023-01-23T17:13:23.464Z,13.01
2023-01-23T17:15:53.021Z,12.88
2023-01-23T17:18:28.453Z,13.02
2023-01-23T17:20:56.636Z,12.57
2023-01-23T17:23:25.473Z,12.54
2023-01-23T17:26:00.497Z,12.71
2023-01-23T17:28:28.780Z,12.97
2023-01-23T17:30:58.163Z,12.95
2023-01-23T17:33:31.692Z,12.60
2023-01-23T17:36:01.000Z,12.76
2023-01-23T17:38:34.629Z,13.15
2023-01-23T17:41:01.997Z,12.80
2023-01-23T17:43:29.476Z,12.82
2023-01-23T17:45:56.634Z,12.72
2023-01-23T17:48:38.573Z,13.00
2023-01-23T17:51:14.750Z,13.00
2023-01-23T17:53:42.284Z,12.94
2023-01-23T17:56:09.947Z,12.77
2023-01-23T17:58:36.941Z,12.55
2023-01-23T18:01:03.745Z,12.51
2023-01-23T18:03:30.614Z,12.44
2023-01-23T18:05:57.352Z,12.88
2023-01-23T18:08:24.363Z,12.52
2023-01-23T18:10:56.677Z,12.26
2023-01-23T18:13:46.097Z,12.03
2023-01-23T18:16:25.218Z,12.62
2023-01-23T18:19:11.722Z,12.78
2023-01-23T18:21:39.044Z,12.62
2023-01-23T18:24:06.488Z,12.49
2023-01-23T18:26:48.331Z,12.79
2023-01-23T18:29:43.858Z,12.78
2023-01-23T18:32:32.664Z,12.85
2023-01-23T18:35:08.777Z,12.81
2023-01-23T18:37:41.934Z,12.73
2023-01-23T18:40:18.421Z,12.47
2023-01-23T18:43:16.608Z,12.66
2023-01-23T18:45:43.827Z,12.56
2023-01-23T18:48:24.505Z,12.89
2023-01-23T18:51:18.167Z,12.80
2023-01-23T18:54:24.224Z,12.86
2023-01-23T18:56:50.978Z,12.80
2023-01-23T18:59:55.200Z,12.47
2023-01-23T19:02:39.331Z,12.69
2023-01-23T19:05:13.925Z,12.67
2023-01-23T19:07:41.024Z,12.88
2023-01-23T19:10:13.672Z,12.43
2023-01-23T19:13:03.981Z,12.48
2023-01-23T19:15:45.856Z,12.18
2023-01-23T19:18:31.488Z,12.41
2023-01-23T19:21:26.725Z,12.35
2023-01-23T19:24:00.533Z,12.13
2023-01-23T19:26:33.603Z,12.22
2023-01-23T19:29:19.340Z,12.41
2023-01-23T19:32:04.547Z,12.35
2023-01-23T19:34:34.018Z,12.82
2023-01-23T19:37:00.801Z,12.82
2023-01-23T19:39:27.625Z,13.01
2023-01-23T19:41:54.424Z,11.97
2023-01-23T19:44:25.144Z,12.45
2023-01-23T19:46:52.732Z,12.37
2023-01-23T19:49:19.548Z,12.77
2023-01-23T19:51:46.770Z,12.42
2023-01-23T19:54:15.237Z,12.08
2023-01-23T19:56:42.647Z,12.06
2023-01-23T19:59:09.813Z,12.33
2023-01-23T20:01:43.537Z,12.45
2023-01-23T20:04:16.178Z,12.10
2023-01-23T20:06:45.681Z,12.45
2023-01-23T20:09:14.658Z,12.42
2023-01-23T20:11:42.384Z,12.39
2023-01-23T20:14:09.221Z,12.24
2023-01-23T20:16:40.545Z,12.19
2023-01-23T20:19:07.533Z,12.62
2023-01-23T20:21:34.593Z,12.49
2023-01-23T20:24:01.618Z,12.61
2023-01-23T20:26:28.429Z,12.15
2023-01-23T20:28:55.260Z,12.13
2023-01-23T20:31:22.777Z,12.27
2023-01-23T20:33:50.423Z,12.33
2023-01-23T20:36:17.599Z,11.98
2023-01-23T20:38:44.723Z,11.70
2023-01-23T20:41:14.956Z,11.70
2023-01-23T20:43:45.381Z,11.92
2023-01-23T20:46:14.133Z,12.00
2023-01-23T20:48:46.238Z,11.70
2023-01-23T20:51:15.133Z,11.88
2023-01-23T20:53:42.720Z,12.12
2023-01-23T20:56:14.215Z,12.51
2023-01-23T20:59:02.020Z,12.06
2023-01-23T21:01:51.810Z,12.01
2023-01-23T21:04:18.988Z,11.87
2023-01-23T21:06:45.832Z,11.66
2023-01-23T21:09:12.585Z,11.59
2023-01-23T21:11:39.544Z,11.74
2023-01-23T21:14:06.709Z,11.54
2023-01-23T21:16:33.593Z,11.90
2023-01-23T21:19:00.419Z,12.03
2023-01-23T21:21:27.680Z,11.97
2023-01-23T21:23:54.514Z,11.91
2023-01-23T21:26:24.367Z,11.88
2023-01-23T21:28:52.360Z,11.87
2023-01-23T21:31:20.578Z,12.06
2023-01-23T21:33:47.745Z,11.89
2023-01-23T21:36:16.863Z,12.27
2023-01-23T21:38:44.172Z,12.31
2023-01-23T21:41:11.169Z,12.25
2023-01-23T21:43:37.806Z,12.25
2023-01-23T21:46:04.772Z,12.08
2023-01-23T21:48:33.132Z,11.95
2023-01-23T21:51:12.330Z,11.87
2023-01-23T21:53:41.685Z,11.96
2023-01-23T21:56:09.850Z,11.74
2023-01-23T21:58:37.010Z,12.03
2023-01-23T22:01:26.628Z,12.22
2023-01-23T22:03:54.461Z,12.26
2023-01-23T22:06:21.292Z,11.90
2023-01-23T22:08:48.638Z,11.70
2023-01-23T22:11:15.348Z,11.60
2023-01-23T22:13:42.481Z,11.92
2023-01-23T22:16:12.329Z,11.86
2023-01-23T22:18:39.143Z,11.97
2023-01-23T22:21:06.585Z,11.88
2023-01-23T22:23:34.342Z,11.84
2023-01-23T22:26:07.814Z,11.58
2023-01-23T22:28:35.645Z,11.70
2023-01-23T22:31:11.033Z,11.72
2023-01-23T22:33:48.623Z,11.92
2023-01-23T22:36:19.261Z,11.10
2023-01-23T22:38:54.138Z,11.32
2023-01-23T22:41:21.563Z,11.28
2023-01-23T22:43:55.730Z,11.75
2023-01-23T22:46:23.339Z,11.18
2023-01-23T22:48:50.769Z,11.68
2023-01-23T22:51:24.515Z,11.57
2023-01-23T22:53:52.977Z,11.37
2023-01-23T22:56:20.373Z,10.81
2023-01-23T22:58:48.617Z,11.36
2023-01-23T23:01:15.672Z,11.48
2023-01-23T23:03:42.822Z,11.84
2023-01-23T23:06:13.260Z,11.53
2023-01-23T23:08:40.210Z,11.77
2023-01-23T23:11:10.124Z,11.88
2023-01-23T23:13:38.942Z,11.81
2023-01-23T23:16:07.988Z,11.81
2023-01-23T23:18:36.743Z,11.78
2023-01-23T23:21:08.080Z,12.04
2023-01-23T23:23:35.388Z,11.62
2023-01-23T23:26:02.161Z,11.49
2023-01-23T23:28:29.005Z,11.86
2023-01-23T23:30:55.663Z,11.49
2023-01-23T23:33:22.610Z,11.55
2023-01-23T23:35:49.621Z,11.65
2023-01-23T23:38:16.581Z,11.53
2023-01-23T23:40:43.508Z,11.79
2023-01-23T23:43:10.260Z,11.88
2023-01-23T23:45:37.394Z,11.71
2023-01-23T23:48:04.269Z,11.27
2023-01-23T23:50:33.455Z,11.74
2023-01-23T23:53:00.196Z,11.79
2023-01-23T23:55:26.934Z,11.81
2023-01-23T23:57:53.610Z,11.61
